Nearby METAR Reports

 

KHIF - Hill Afb/Ogden, Utah, USA
Distance from station: ENE 6mi, 9km
Updated: Sun, 07-Mar-2021 6:58pm MST
Clear
Clear
 Wind from N
Wind: N 7 mph , 11 km/h
Temperature: 50°F , 10°C
Wind Chill: 47°F , 8°C
Dew Point: 23°F , -5°C
Humidity: 35%
Barometer: 30.02 inHg , 1016.6 hPa
Clouds: Clear
Visibility: 10 miles , 16 km
2021/03/08 01:58 KHIF 080158Z AUTO 35006KT 10SM CLR 10/M05 A3002 RMK AO2 SLP159 T01011051
KOGD - Ogden, Utah, USA
Distance from station: NNE 9mi, 14km
Updated: Sun, 07-Mar-2021 6:53pm MST
Clear
Clear
 Wind from N
Wind: N 3 mph , 6 km/h
Temperature: 48°F , 9°C
Dew Point: 27°F , -3°C
Humidity: 43%
Barometer: 30.01 inHg , 1016.3 hPa
Clouds: Clear
Visibility: 10 miles , 16 km
2021/03/08 01:53 KOGD 080153Z 01003KT 10SM CLR 09/M03 A3001 RMK AO2 SLP153 T00941028
 
KSLC - Salt Lake City, Utah, USA
Distance from station: SSE 21mi, 34km
Updated: Sun, 07-Mar-2021 6:54pm MST
Mostly cloudy
Mostly cloudy
 Wind from W
Wind: W 5 mph , 7 km/h
Temperature: 48°F , 9°C
Wind Chill: 46°F , 8°C
Dew Point: 34°F , 1°C
Humidity: 58%
Barometer: 30.02 inHg , 1016.6 hPa
Clouds: Mostly cloudy
Visibility: 10 miles , 16 km
Cloud details: Mostly cloudy 22000 ft
2021/03/08 01:54 KSLC 080154Z 27004KT 10SM BKN220 09/01 A3002 RMK AO2 SLP160 T00940011
KLGU - Logan, Utah, USA
Distance from station: NNE 50mi, 80km
Updated: Sun, 07-Mar-2021 6:51pm MST
Clear
Clear
 Wind from calm
Wind: Calm
Temperature: 45°F , 7°C
Dew Point: 28°F , -2°C
Humidity: 53%
Barometer: 30.05 inHg , 1017.6 hPa
Clouds: Clear
Visibility: 10 miles , 16 km
2021/03/08 01:51 KLGU 080151Z AUTO 00000KT 10SM CLR 07/M02 A3005 RMK AO2 SLP186 T00671017
 
K36U - Heber/Russ Mcdon, Utah, USA
Distance from station: SE 53mi, 85km
Updated: Wed, 11-Oct-2017 6:50pm MDT
NOT Current
Clear
Clear
 Wind from SSW
Wind: SSW 10 mph , 17 km/h, Gust: 18 mph , 30 km/h
Temperature: 63°F , 17°C
Dew Point: 16°F , -9°C
Humidity: 16%
Barometer: 29.87 inHg , 1011.5 hPa
Clouds: Clear
Visibility: 10 miles , 16 km
2017/10/12 00:50 K36U 120050Z AUTO 21009G16KT 10SM CLR 17/M09 A2987 RMK AO2
KEVW - Evanston, Wyoming, USA
Distance from station: ENE 55mi, 89km
Updated: Sun, 07-Mar-2021 6:53pm MST
Clear
Clear
 Wind from ENE
Wind: ENE 6 mph , 9 km/h
Temperature: 43°F , 6°C
Wind Chill: 39°F , 4°C
Dew Point: 19°F , -7°C
Humidity: 39%
Barometer: 30.11 inHg , 1019.6 hPa
Clouds: Clear
Visibility: 10 miles , 16 km
2021/03/08 01:53 KEVW 080153Z AUTO 07005KT 10SM CLR 06/M07 A3011 RMK AO2 SLP189 T00561067 $
 
KPVU - Provo Muni, Utah, USA
Distance from station: SSE 62mi, 100km
Updated: Sun, 07-Mar-2021 6:56pm MST
Mostly cloudy
Mostly cloudy
 Wind from varies
Wind: varies 7 mph , 11 km/h
Temperature: 52°F , 11°C
Dew Point: 36°F , 2°C
Humidity: 54%
Barometer: 30.02 inHg , 1016.6 hPa
Clouds: Mostly cloudy
Visibility: 10 miles , 16 km
Cloud details: Mostly cloudy 20000 ft
2021/03/08 01:56 KPVU 080156Z VRB06KT 10SM BKN200 11/02 A3002 RMK AO2 SLP162 T01060017
KDPG - Dugway Prvg Grou, Utah, USA
Distance from station: SW 75mi, 121km
Updated: Thu, 04-Mar-2021 5:00pm MST
NOT Current
Few Clouds
Few Clouds
 Wind from S
Wind: S 10 mph , 17 km/h
Temperature: 55°F , 13°C
Dew Point: 30°F , -1°C
Humidity: 38%
Barometer: 30.23 inHg , 1023.7 hPa
Clouds: Few Clouds
Visibility: 45 miles , 72 km
Cloud details: Few Clouds 6000 ft
Few Clouds 20000 ft
2021/03/05 00:00 KDPG 050000Z 18009KT 45SM FEW060 FEW200 13/M01 A3023 RMK SLP217 T01311012 10148 20087 53014 LAST
 
KENV - Wendover (aut), Utah, USA
Distance from station: WSW 105mi, 169km
Updated: Sun, 07-Mar-2021 6:56pm MST
Clear
Clear
 Wind from W
Wind: W 5 mph , 7 km/h
Temperature: 48°F , 9°C
Wind Chill: 46°F , 8°C
Dew Point: 21°F , -6°C
Humidity: 34%
Barometer: 30.01 inHg , 1016.3 hPa
Clouds: Clear
Visibility: 10 miles , 16 km
2021/03/08 01:56 KENV 080156Z AUTO 26004KT 10SM CLR 09/M06 A3001 RMK AO2 SLP177 T00891061
KPUC - Price, Utah, USA
Distance from station: SE 123mi, 197km
Updated: Sun, 07-Mar-2021 6:53pm MST
Clear
Clear
 Wind from E
Wind: E 7 mph , 11 km/h
Temperature: 52°F , 11°C
Dew Point: 12°F , -11°C
Humidity: 20%
Barometer: 30.07 inHg , 1018.3 hPa
Clouds: Clear
Visibility: 10 miles , 16 km
2021/03/08 01:53 KPUC 080153Z AUTO 09006KT 10SM CLR 11/M11 A3007 RMK AO2 SLP191 T01061111
 
KPIH - Pocatello, Idaho, USA
Distance from station: NNW 130mi, 208km
Updated: Sun, 07-Mar-2021 6:53pm MST
Clear
Clear
 Wind from calm
Wind: Calm
Temperature: 45°F , 7°C
Dew Point: 25°F , -4°C
Humidity: 46%
Barometer: 30.05 inHg , 1017.6 hPa
Clouds: Clear
Visibility: 10 miles , 16 km
2021/03/08 01:53 KPIH 080153Z 00000KT 10SM CLR 07/M04 A3005 RMK AO2 SLP191 T00721039
KBYI - Burley, Idaho, USA
Distance from station: NW 134mi, 216km
Updated: Sun, 07-Mar-2021 6:53pm MST
Clear
Clear
 Wind from NE
Wind: NE 6 mph , 9 km/h
Temperature: 48°F , 9°C
Wind Chill: 45°F , 7°C
Dew Point: 25°F , -4°C
Humidity: 40%
Barometer: 30.00 inHg , 1015.9 hPa
Clouds: Clear
Visibility: 10 miles , 16 km
2021/03/08 01:53 KBYI 080153Z AUTO 04005KT 10SM CLR 09/M04 A3000 RMK AO2 SLP169 T00891039
 
KVEL - Vernal, Utah, USA
Distance from station: ESE 140mi, 226km
Updated: Sun, 07-Mar-2021 6:53pm MST
Clear
Clear
 Wind from W
Wind: W 5 mph , 7 km/h
Temperature: 45°F , 7°C
Wind Chill: 42°F , 6°C
Dew Point: 21°F , -6°C
Humidity: 39%
Barometer: 30.06 inHg , 1017.9 hPa
Clouds: Clear
Visibility: 10 miles , 16 km
2021/03/08 01:53 KVEL 080153Z AUTO 27004KT 10SM CLR 07/M06 A3006 RMK AO2 SLP190 T00671061
KBPI - Big Piney, Wyoming, USA
Distance from station: NE 145mi, 234km
Updated: Sun, 07-Mar-2021 6:53pm MST
Clear
Clear
 Wind from NNE
Wind: NNE 7 mph , 11 km/h
Temperature: 34°F , 1°C
Wind Chill: 28°F , -2°C
Dew Point: 21°F , -6°C
Humidity: 60%
Barometer: 30.15 inHg , 1021 hPa
Clouds: Clear
Visibility: 10 miles , 16 km
2021/03/08 01:53 KBPI 080153Z AUTO 02006KT 10SM CLR 01/M06 A3015 RMK AO2 SLP229 T00061061